Flight Track Log - Related Links

Times and Time Zones

All times are in EDT time to prevent confusion due to time zone crossing. See the BJS542 flight status page for this flight to view local times or setup timezone preferences in your user account.

Time Position Orientation Groundspeed Altitude Reporting Facility
EDT Latitude Longitude Course Direction KTS MPH feet Rate Location/Type
Wed 07:45:45 AM 42.4667 -71.3167 235° Southwest 187 215 1,200  Level KA90
Wed 07:48:19 AM 42.3736 -71.4931 235° Southwest 260 299 8,900 3,168 Climbing Boston Center
Wed 07:49:19 AM 42.3578 -71.6000 259° West 260 299 12,500 2,400 Climbing Boston Center
Wed 07:50:19 AM 42.3522 -71.7042 266° West 303 349 13,700 1,150 Climbing Boston Center
Wed 07:51:19 AM 42.3383 -71.8419 262° West 335 386 14,800 1,050 Climbing Boston Center
Wed 07:52:19 AM 42.3119 -71.9683 254° West 342 394 15,800 650 Climbing Boston Center
Wed 07:53:19 AM 42.2894 -72.0864 256° West 357 411 16,100 100 Climbing Boston Center
Wed 07:54:19 AM 42.2628 -72.2269 256° West 363 418 16,000 -50 Descending Boston Center
Wed 07:55:19 AM 42.2378 -72.3447 254° West 363 418 16,000  Level Boston Center
Wed 07:56:19 AM 42.2108 -72.4850 256° West 358 412 16,000  Level Boston Center
Wed 07:57:19 AM 42.1878 -72.5969 255° West 358 412 16,000 50 Level Boston Center
Wed 07:58:19 AM 42.1625 -72.7231 255° West 358 412 16,100  Climbing Boston Center
Wed 07:59:19 AM 42.1328 -72.8628 254° West 358 412 16,000  Descending Boston Center
Wed 08:00:19 AM 42.1094 -72.9775 255° West 358 412 16,100  Climbing Boston Center
Wed 08:01:19 AM 42.0775 -73.1197 253° West 358 412 16,000 -50 Descending Boston Center
Wed 08:02:19 AM 42.0536 -73.2342 254° West 358 412 16,000 -50 Level Boston Center
Wed 08:03:19 AM 42.0214 -73.3678 252° West 358 412 15,900  Descending Boston Center
Wed 08:04:19 AM 41.9975 -73.4708 253° West 337 388 16,000 50 Climbing Boston Center
Wed 08:05:19 AM 41.9547 -73.6042 247° West 347 399 16,000  Level Boston Center
Wed 08:06:19 AM 41.9181 -73.7122 246° West 352 405 16,000  Level Boston Center
Wed 08:07:19 AM 41.8706 -73.8481 245° Southwest 359 413 16,000  Level Boston Center
Wed 08:08:19 AM 41.8336 -73.9586 246° West 359 413 16,000 -800 Level Boston Center
Wed 08:09:19 AM 41.7883 -74.0856 244° Southwest 359 413 14,400 -1,600 Descending Boston Center
Wed 08:10:19 AM 41.7489 -74.1986 245° Southwest 354 407 12,800 -1,500 Descending Boston Center
Wed 08:11:19 AM 41.7119 -74.3033 245° Southwest 354 407 11,400 -1,450 Descending Boston Center
Wed 08:12:19 AM 41.6744 -74.4133 245° Southwest 319 367 9,900 -1,350 Descending Boston Center
Wed 08:13:19 AM 41.6461 -74.4903 244° Southwest 277 319 8,700 -1,150 Descending Boston Center
Wed 08:14:19 AM 41.5886 -74.5578 221° Southwest 248 285 7,600 -1,000 Descending Boston Center
Wed 08:15:19 AM 41.5197 -74.5694 187° South 259 298 6,700 -469 Descending Boston Center
Wed 08:17:31 AM 41.3500 -74.5667 179° South 296 341 6,100 -545 Descending New York TRACON
Wed 08:18:37 AM 41.2667 -74.5333 163° South 289 333 4,900 -952 Descending New York TRACON
Wed 08:19:37 AM 41.2000 -74.4667 143° Southeast 307 353 4,100 -400 Descending New York TRACON
Wed 08:20:37 AM 41.1667 -74.3667 114° Southeast 307 353 4,100 -350 Level New York TRACON
Wed 08:21:37 AM 41.1167 -74.2667 124° Southeast 302 348 3,400 -500 Descending New York TRACON
Wed 08:22:37 AM 41.0833 -74.1667 114° Southeast 300 345 3,100 -500 Descending New York TRACON
Wed 08:23:37 AM 41.0333 -74.0833 128° Southeast 300 345 2,400 -550 Descending New York TRACON
Wed 08:24:37 AM 40.9667 -74.0500 159° South 243 280 2,000 -421 Descending New York TRACON
Wed 08:25:31 AM 40.9167 -74.0500 180° South 181 208 1,600 -684 Descending New York TRACON
Wed 08:26:31 AM 40.8833 -74.0333 159° South 142 163 700 -900 Descending New York TRACON
Wed 08:28:00 AM 40.8500 -74.0500 156° South  Level FlightAware Approximate
Wed 08:35:00 AM 40.8501 -74.0608 156° South  Level Estimated
Wed 08:36:00 AM 40.8501 -74.0608 156° South  Level Estimated

Login

Don't have an account? Register now (free) for customized features, flight alerts, and more!